RYR6D EIDW-LGTS
Flight info
| Callsign | RYR6D |
|---|---|
| Flight time | N/A |
| Altitude | 35000 |
| Route | DEXEN4E DEXEN UY124 AMPIT L15 BIG UL9 KONAN UL607 REMBA M624 DIK M150 KRH DCT UTABA L607 MOMUK DCT UMVEG/N0439F370 DCT VEKEN DCT NEMEK DCT TUPUS DCT MEDUX UM867 KOGAT DCT PEP DCT TALAS N130 ALIKO |
| Aircraft | B738/M-SDE2E3FGHIRWXY/LB1 |
Departure
| Time | 2026-05-06 16:12 |
|---|---|
| Airport | Dublin Airport (EIDW) |
Arrival
| Time | N/A |
|---|---|
| Airport | Thessaloniki Macedonia International Airport (LGTS) |
| Time | Latitude | Longitude | Altitude | Speed | Heading |
|---|---|---|---|---|---|
| 2026-05-06 15:59 | 53.42846 | -6.25002 | 218 ft | 0 kts | 221° |
| 2026-05-06 16:02 | 53.42845 | -6.25004 | 210 ft | 0 kts | 221° |
| 2026-05-06 16:02 | 53.42844 | -6.25004 | 210 ft | 0 kts | 221° |
| 2026-05-06 16:03 | 53.42827 | -6.25027 | 212 ft | 6 kts | 215° |
| 2026-05-06 16:03 | 53.42777 | -6.25090 | 210 ft | 11 kts | 224° |
| 2026-05-06 16:03 | 53.42711 | -6.25202 | 216 ft | 15 kts | 226° |
| 2026-05-06 16:03 | 53.42629 | -6.25344 | 213 ft | 18 kts | 225° |
| 2026-05-06 16:04 | 53.42536 | -6.25501 | 210 ft | 19 kts | 226° |
| 2026-05-06 16:04 | 53.42445 | -6.25658 | 210 ft | 18 kts | 225° |
| 2026-05-06 16:04 | 53.42356 | -6.25808 | 210 ft | 18 kts | 226° |
| 2026-05-06 16:04 | 53.42275 | -6.25960 | 214 ft | 17 kts | 239° |
| 2026-05-06 16:05 | 53.42259 | -6.26154 | 210 ft | 18 kts | 275° |
| 2026-05-06 16:05 | 53.42270 | -6.26365 | 210 ft | 19 kts | 275° |
| 2026-05-06 16:05 | 53.42282 | -6.26589 | 217 ft | 20 kts | 275° |
| 2026-05-06 16:05 | 53.42295 | -6.26822 | 210 ft | 21 kts | 276° |
| 2026-05-06 16:06 | 53.42309 | -6.27068 | 219 ft | 22 kts | 275° |
| 2026-05-06 16:06 | 53.42322 | -6.27320 | 219 ft | 22 kts | 275° |
| 2026-05-06 16:06 | 53.42336 | -6.27566 | 210 ft | 21 kts | 275° |
| 2026-05-06 16:06 | 53.42349 | -6.27805 | 218 ft | 20 kts | 275° |
| 2026-05-06 16:07 | 53.42362 | -6.28037 | 213 ft | 20 kts | 275° |
| 2026-05-06 16:07 | 53.42374 | -6.28261 | 210 ft | 19 kts | 275° |
| 2026-05-06 16:07 | 53.42386 | -6.28478 | 210 ft | 18 kts | 275° |
| 2026-05-06 16:07 | 53.42394 | -6.28626 | 210 ft | 12 kts | 275° |
| 2026-05-06 16:08 | 53.42402 | -6.28777 | 210 ft | 14 kts | 275° |
| 2026-05-06 16:08 | 53.42412 | -6.28946 | 212 ft | 15 kts | 275° |
| 2026-05-06 16:08 | 53.42351 | -6.29072 | 214 ft | 16 kts | 195° |
| 2026-05-06 16:08 | 53.42246 | -6.29033 | 211 ft | 16 kts | 124° |
| 2026-05-06 16:09 | 53.42239 | -6.28978 | 208 ft | 0 kts | 95° |
| 2026-05-06 16:11 | 53.42231 | -6.28834 | 216 ft | 39 kts | 95° |
| 2026-05-06 16:11 | 53.42188 | -6.28020 | 210 ft | 100 kts | 95° |
| 2026-05-06 16:11 | 53.42107 | -6.26574 | 212 ft | 147 kts | 97° |
| 2026-05-06 16:11 | 53.42009 | -6.24792 | 514 ft | 160 kts | 96° |
| 2026-05-06 16:12 | 53.41914 | -6.22852 | 855 ft | 168 kts | 96° |
| 2026-05-06 16:12 | 53.41815 | -6.20947 | 1433 ft | 160 kts | 97° |
| 2026-05-06 16:12 | 53.41710 | -6.19079 | 1555 ft | 162 kts | 97° |
| 2026-05-06 16:12 | 53.41604 | -6.17189 | 1633 ft | 165 kts | 97° |
| 2026-05-06 16:13 | 53.41496 | -6.15284 | 1769 ft | 168 kts | 97° |
| 2026-05-06 16:13 | 53.41375 | -6.13181 | 2050 ft | 195 kts | 98° |
| 2026-05-06 16:13 | 53.41007 | -6.10830 | 2280 ft | 222 kts | 109° |
| 2026-05-06 16:13 | 53.40467 | -6.08324 | 2730 ft | 233 kts | 111° |
| 2026-05-06 16:14 | 53.39884 | -6.05691 | 3116 ft | 251 kts | 110° |
| 2026-05-06 16:14 | 53.39272 | -6.02906 | 3644 ft | 264 kts | 110° |
| 2026-05-06 16:14 | 53.38643 | -6.00002 | 4514 ft | 266 kts | 110° |
| 2026-05-06 16:14 | 53.38006 | -5.97039 | 5273 ft | 274 kts | 110° |
| 2026-05-06 16:15 | 53.37365 | -5.94032 | 6199 ft | 274 kts | 110° |
| 2026-05-06 16:15 | 53.36718 | -5.90988 | 6948 ft | 280 kts | 110° |
| 2026-05-06 16:15 | 53.36064 | -5.87901 | 7736 ft | 283 kts | 110° |
| 2026-05-06 16:15 | 53.35402 | -5.84773 | 8528 ft | 287 kts | 110° |
| 2026-05-06 16:16 | 53.34729 | -5.81594 | 9301 ft | 291 kts | 110° |
| 2026-05-06 16:16 | 53.34045 | -5.78366 | 10045 ft | 296 kts | 110° |
| 2026-05-06 16:16 | 53.33342 | -5.75049 | 10454 ft | 313 kts | 110° |
| 2026-05-06 16:16 | 53.32585 | -5.71485 | 10644 ft | 337 kts | 110° |
| 2026-05-06 16:17 | 53.31781 | -5.67704 | 11014 ft | 352 kts | 110° |
| 2026-05-06 16:17 | 53.30953 | -5.63810 | 11659 ft | 357 kts | 110° |
| 2026-05-06 16:17 | 53.30114 | -5.59874 | 12405 ft | 361 kts | 110° |
| 2026-05-06 16:17 | 53.29265 | -5.55905 | 13119 ft | 365 kts | 110° |
| 2026-05-06 16:18 | 53.28420 | -5.51881 | 13804 ft | 370 kts | 107° |
| 2026-05-06 16:18 | 53.27880 | -5.47659 | 14427 ft | 374 kts | 96° |
| 2026-05-06 16:18 | 53.27726 | -5.43305 | 15096 ft | 376 kts | 92° |
| 2026-05-06 16:18 | 53.27638 | -5.38957 | 15734 ft | 380 kts | 91° |
| 2026-05-06 16:19 | 53.27549 | -5.34528 | 16366 ft | 383 kts | 92° |
| 2026-05-06 16:19 | 53.27445 | -5.30058 | 16997 ft | 387 kts | 92° |
| 2026-05-06 16:19 | 53.27324 | -5.25546 | 17625 ft | 391 kts | 92° |
| 2026-05-06 16:19 | 53.27148 | -5.20989 | 18239 ft | 394 kts | 98° |
| 2026-05-06 16:20 | 53.26505 | -5.16521 | 18761 ft | 398 kts | 111° |
| 2026-05-06 16:20 | 53.25445 | -5.12236 | 19313 ft | 400 kts | 114° |
| 2026-05-06 16:20 | 53.24330 | -5.07963 | 19828 ft | 404 kts | 114° |
| 2026-05-06 16:20 | 53.23193 | -5.03650 | 20350 ft | 407 kts | 114° |
| 2026-05-06 16:21 | 53.22066 | -4.99365 | 20858 ft | 410 kts | 114° |
| 2026-05-06 16:21 | 53.20919 | -4.94978 | 21370 ft | 414 kts | 114° |
| 2026-05-06 16:21 | 53.19769 | -4.90558 | 21872 ft | 417 kts | 114° |
| 2026-05-06 16:21 | 53.18613 | -4.86100 | 22355 ft | 420 kts | 114° |
| 2026-05-06 16:22 | 53.17449 | -4.81604 | 22836 ft | 424 kts | 114° |
| 2026-05-06 16:22 | 53.16277 | -4.77077 | 23319 ft | 427 kts | 114° |
| 2026-05-06 16:22 | 53.15096 | -4.72520 | 23756 ft | 430 kts | 114° |
| 2026-05-06 16:22 | 53.13901 | -4.67921 | 24159 ft | 432 kts | 114° |
| 2026-05-06 16:23 | 53.12703 | -4.63313 | 24574 ft | 434 kts | 114° |
| 2026-05-06 16:23 | 53.11498 | -4.58692 | 24979 ft | 436 kts | 114° |
| 2026-05-06 16:23 | 53.10285 | -4.54049 | 25366 ft | 439 kts | 114° |
| 2026-05-06 16:23 | 53.09063 | -4.49382 | 25748 ft | 441 kts | 114° |
| 2026-05-06 16:24 | 53.07832 | -4.44690 | 26144 ft | 443 kts | 114° |
| 2026-05-06 16:24 | 53.06611 | -4.40044 | 26520 ft | 445 kts | 114° |
| 2026-05-06 16:24 | 53.05368 | -4.35327 | 26888 ft | 447 kts | 114° |
| 2026-05-06 16:24 | 53.04115 | -4.30580 | 27249 ft | 449 kts | 114° |
| 2026-05-06 16:25 | 53.02855 | -4.25819 | 27611 ft | 451 kts | 114° |
| 2026-05-06 16:25 | 53.01588 | -4.21042 | 27968 ft | 453 kts | 114° |
| 2026-05-06 16:25 | 53.00311 | -4.16235 | 28303 ft | 455 kts | 114° |
| 2026-05-06 16:25 | 52.99030 | -4.11423 | 28648 ft | 457 kts | 114° |
| 2026-05-06 16:26 | 52.97741 | -4.06593 | 28981 ft | 458 kts | 114° |
| 2026-05-06 16:26 | 52.96444 | -4.01741 | 29298 ft | 460 kts | 114° |
| 2026-05-06 16:26 | 52.95142 | -3.96883 | 29600 ft | 462 kts | 114° |
| 2026-05-06 16:26 | 52.93847 | -3.92060 | 30035 ft | 461 kts | 114° |
| 2026-05-06 16:27 | 52.92548 | -3.87229 | 30471 ft | 458 kts | 114° |
| 2026-05-06 16:27 | 52.91251 | -3.82421 | 30861 ft | 456 kts | 114° |
| 2026-05-06 16:27 | 52.89952 | -3.77612 | 31175 ft | 456 kts | 114° |
| 2026-05-06 16:27 | 52.88652 | -3.72811 | 31483 ft | 456 kts | 114° |
| 2026-05-06 16:28 | 52.87351 | -3.68016 | 31808 ft | 456 kts | 114° |
| 2026-05-06 16:28 | 52.86048 | -3.63225 | 32159 ft | 455 kts | 115° |
| 2026-05-06 16:28 | 52.84750 | -3.58461 | 32487 ft | 454 kts | 115° |
| 2026-05-06 16:28 | 52.83451 | -3.53704 | 32819 ft | 453 kts | 115° |
| 2026-05-06 16:29 | 52.82152 | -3.48957 | 33152 ft | 452 kts | 115° |
| 2026-05-06 16:29 | 52.80872 | -3.44287 | 33427 ft | 452 kts | 115° |
| 2026-05-06 16:29 | 52.79573 | -3.39559 | 33717 ft | 452 kts | 115° |
| 2026-05-06 16:29 | 52.78270 | -3.34827 | 34024 ft | 451 kts | 115° |
| 2026-05-06 16:30 | 52.76971 | -3.30116 | 34269 ft | 451 kts | 115° |
| 2026-05-06 16:30 | 52.76092 | -3.26936 | 34412 ft | 451 kts | 115° |
| 2026-05-06 16:30 | 52.74364 | -3.20697 | 34686 ft | 451 kts | 115° |
| 2026-05-06 16:30 | 52.73058 | -3.15992 | 34926 ft | 450 kts | 115° |
| 2026-05-06 16:31 | 52.70425 | -3.06534 | 35023 ft | 457 kts | 115° |
| 2026-05-06 16:31 | 52.67741 | -2.96931 | 35029 ft | 465 kts | 115° |
| 2026-05-06 16:32 | 52.65023 | -2.87247 | 35026 ft | 472 kts | 115° |
| 2026-05-06 16:32 | 52.62225 | -2.77322 | 35019 ft | 477 kts | 115° |
| 2026-05-06 16:33 | 52.59437 | -2.67470 | 35014 ft | 479 kts | 115° |
| 2026-05-06 16:34 | 52.55195 | -2.52561 | 35018 ft | 480 kts | 116° |
| 2026-05-06 16:34 | 52.52359 | -2.42646 | 35012 ft | 479 kts | 116° |
| 2026-05-06 16:35 | 52.49519 | -2.32759 | 35019 ft | 478 kts | 116° |
| 2026-05-06 16:35 | 52.46679 | -2.22912 | 35016 ft | 477 kts | 116° |
| 2026-05-06 16:36 | 52.43856 | -2.13167 | 35016 ft | 476 kts | 116° |
| 2026-05-06 16:36 | 52.41007 | -2.03372 | 35010 ft | 475 kts | 116° |
| 2026-05-06 16:37 | 52.38156 | -1.93612 | 35018 ft | 474 kts | 117° |
| 2026-05-06 16:37 | 52.35304 | -1.83884 | 35020 ft | 474 kts | 117° |
| 2026-05-06 16:38 | 52.32445 | -1.74175 | 35016 ft | 473 kts | 117° |
| 2026-05-06 16:38 | 52.29598 | -1.64548 | 35012 ft | 473 kts | 117° |
| 2026-05-06 16:39 | 52.26724 | -1.54864 | 35019 ft | 473 kts | 117° |
| 2026-05-06 16:39 | 52.23858 | -1.45250 | 35019 ft | 473 kts | 117° |
| 2026-05-06 16:40 | 52.20970 | -1.35600 | 35021 ft | 472 kts | 117° |
| 2026-05-06 16:40 | 52.18078 | -1.25974 | 35019 ft | 472 kts | 117° |
| 2026-05-06 16:41 | 52.15181 | -1.16371 | 35019 ft | 472 kts | 118° |
| 2026-05-06 16:41 | 52.12280 | -1.06790 | 35010 ft | 471 kts | 118° |
| 2026-05-06 16:42 | 52.09388 | -0.97281 | 34997 ft | 471 kts | 118° |
| 2026-05-06 16:42 | 52.06481 | -0.87757 | 34992 ft | 470 kts | 118° |
| 2026-05-06 16:43 | 52.03571 | -0.78263 | 34995 ft | 469 kts | 118° |
| 2026-05-06 16:43 | 52.00652 | -0.68773 | 34988 ft | 468 kts | 118° |
| 2026-05-06 16:44 | 51.97738 | -0.59342 | 34990 ft | 467 kts | 118° |
| 2026-05-06 16:44 | 51.94822 | -0.49936 | 34992 ft | 466 kts | 118° |
| 2026-05-06 16:45 | 51.91902 | -0.40556 | 34995 ft | 466 kts | 119° |
| 2026-05-06 16:45 | 51.88991 | -0.31242 | 34992 ft | 466 kts | 119° |
| 2026-05-06 16:46 | 51.86057 | -0.21888 | 34993 ft | 466 kts | 119° |
| 2026-05-06 16:46 | 51.83113 | -0.12538 | 34987 ft | 466 kts | 119° |
| 2026-05-06 16:47 | 51.80159 | -0.03192 | 35024 ft | 466 kts | 119° |
| 2026-05-06 16:47 | 51.77206 | 0.06114 | 35064 ft | 472 kts | 118° |
| 2026-05-06 16:48 | 51.74172 | 0.15638 | 34998 ft | 479 kts | 118° |
| 2026-05-06 16:48 | 51.71114 | 0.25200 | 34994 ft | 480 kts | 118° |
| 2026-05-06 16:49 | 51.68063 | 0.34709 | 34982 ft | 480 kts | 118° |